sensor_id;sensor_type;location;lat;lon;timestamp;temperature;humidity
13707;DHT22;6925;47.816;13.072;2022-08-16T00:00:37;21.60;65.60
13707;DHT22;6925;47.816;13.072;2022-08-16T00:03:09;21.50;65.70
13707;DHT22;6925;47.816;13.072;2022-08-16T00:05:36;21.50;66.40
13707;DHT22;6925;47.816;13.072;2022-08-16T00:08:05;21.40;66.60
13707;DHT22;6925;47.816;13.072;2022-08-16T00:10:33;21.30;66.90
13707;DHT22;6925;47.816;13.072;2022-08-16T00:13:05;21.30;67.50
13707;DHT22;6925;47.816;13.072;2022-08-16T00:15:36;21.30;67.30
13707;DHT22;6925;47.816;13.072;2022-08-16T00:18:04;21.30;67.50
13707;DHT22;6925;47.816;13.072;2022-08-16T00:20:33;21.40;67.50
13707;DHT22;6925;47.816;13.072;2022-08-16T00:23:01;21.40;67.20
13707;DHT22;6925;47.816;13.072;2022-08-16T00:25:29;21.50;67.40
13707;DHT22;6925;47.816;13.072;2022-08-16T00:27:57;21.50;67.10
13707;DHT22;6925;47.816;13.072;2022-08-16T00:30:24;21.50;67.30
13707;DHT22;6925;47.816;13.072;2022-08-16T00:32:54;21.40;67.40
13707;DHT22;6925;47.816;13.072;2022-08-16T00:35:23;21.30;67.70
13707;DHT22;6925;47.816;13.072;2022-08-16T00:37:53;21.40;67.60
13707;DHT22;6925;47.816;13.072;2022-08-16T00:40:25;21.40;67.40
13707;DHT22;6925;47.816;13.072;2022-08-16T00:42:53;21.30;67.30
13707;DHT22;6925;47.816;13.072;2022-08-16T00:45:33;21.40;67.00
13707;DHT22;6925;47.816;13.072;2022-08-16T00:48:03;21.30;67.00
13707;DHT22;6925;47.816;13.072;2022-08-16T00:50:34;21.30;66.70
13707;DHT22;6925;47.816;13.072;2022-08-16T00:53:05;21.30;66.60
13707;DHT22;6925;47.816;13.072;2022-08-16T00:55:34;21.30;67.10
13707;DHT22;6925;47.816;13.072;2022-08-16T00:58:04;21.20;67.00
13707;DHT22;6925;47.816;13.072;2022-08-16T01:00:32;21.20;67.10
13707;DHT22;6925;47.816;13.072;2022-08-16T01:03:03;21.20;67.20
13707;DHT22;6925;47.816;13.072;2022-08-16T01:05:33;21.20;67.30
13707;DHT22;6925;47.816;13.072;2022-08-16T01:08:02;21.20;67.90
13707;DHT22;6925;47.816;13.072;2022-08-16T01:10:31;21.10;68.00
13707;DHT22;6925;47.816;13.072;2022-08-16T01:13:03;21.10;68.20
13707;DHT22;6925;47.816;13.072;2022-08-16T01:15:32;21.00;68.20
13707;DHT22;6925;47.816;13.072;2022-08-16T01:18:01;21.00;68.60
13707;DHT22;6925;47.816;13.072;2022-08-16T01:20:33;21.00;68.60
13707;DHT22;6925;47.816;13.072;2022-08-16T01:23:09;20.90;68.70
13707;DHT22;6925;47.816;13.072;2022-08-16T01:25:42;20.90;68.70
13707;DHT22;6925;47.816;13.072;2022-08-16T01:28:11;20.90;68.60
13707;DHT22;6925;47.816;13.072;2022-08-16T01:30:42;20.90;68.80
13707;DHT22;6925;47.816;13.072;2022-08-16T01:33:11;20.80;68.80
13707;DHT22;6925;47.816;13.072;2022-08-16T01:35:41;20.90;68.80
13707;DHT22;6925;47.816;13.072;2022-08-16T01:38:17;20.80;68.80
13707;DHT22;6925;47.816;13.072;2022-08-16T01:40:51;20.80;68.50
13707;DHT22;6925;47.816;13.072;2022-08-16T01:43:19;20.70;68.70
13707;DHT22;6925;47.816;13.072;2022-08-16T01:45:47;20.70;68.90
13707;DHT22;6925;47.816;13.072;2022-08-16T01:48:14;20.80;69.20
13707;DHT22;6925;47.816;13.072;2022-08-16T01:50:43;20.80;69.00
13707;DHT22;6925;47.816;13.072;2022-08-16T01:53:11;20.90;68.70
13707;DHT22;6925;47.816;13.072;2022-08-16T01:55:38;20.90;68.40
13707;DHT22;6925;47.816;13.072;2022-08-16T01:58:09;20.90;68.00
13707;DHT22;6925;47.816;13.072;2022-08-16T02:00:36;20.90;67.90
13707;DHT22;6925;47.816;13.072;2022-08-16T02:03:04;20.80;68.10
13707;DHT22;6925;47.816;13.072;2022-08-16T02:05:32;20.80;67.90
13707;DHT22;6925;47.816;13.072;2022-08-16T02:07:59;20.80;67.70
13707;DHT22;6925;47.816;13.072;2022-08-16T02:10:27;20.70;67.70
13707;DHT22;6925;47.816;13.072;2022-08-16T02:12:55;20.70;67.40
13707;DHT22;6925;47.816;13.072;2022-08-16T02:15:27;20.60;67.80
13707;DHT22;6925;47.816;13.072;2022-08-16T02:17:55;20.60;67.60
13707;DHT22;6925;47.816;13.072;2022-08-16T02:20:24;20.60;67.40
13707;DHT22;6925;47.816;13.072;2022-08-16T02:22:51;20.70;67.80
13707;DHT22;6925;47.816;13.072;2022-08-16T02:25:19;20.60;67.60
13707;DHT22;6925;47.816;13.072;2022-08-16T02:27:47;20.70;67.60
13707;DHT22;6925;47.816;13.072;2022-08-16T02:30:18;20.70;67.90
13707;DHT22;6925;47.816;13.072;2022-08-16T02:32:47;20.70;67.20
13707;DHT22;6925;47.816;13.072;2022-08-16T02:35:15;20.70;67.50
13707;DHT22;6925;47.816;13.072;2022-08-16T02:37:43;20.70;67.40
13707;DHT22;6925;47.816;13.072;2022-08-16T02:40:12;20.70;66.60
13707;DHT22;6925;47.816;13.072;2022-08-16T02:42:41;20.70;66.60
13707;DHT22;6925;47.816;13.072;2022-08-16T02:45:09;20.70;66.70
13707;DHT22;6925;47.816;13.072;2022-08-16T02:47:37;20.70;67.00
13707;DHT22;6925;47.816;13.072;2022-08-16T02:50:07;20.70;67.00
13707;DHT22;6925;47.816;13.072;2022-08-16T02:52:34;20.80;67.30
13707;DHT22;6925;47.816;13.072;2022-08-16T02:55:02;20.80;67.30
13707;DHT22;6925;47.816;13.072;2022-08-16T02:57:30;20.90;67.10
13707;DHT22;6925;47.816;13.072;2022-08-16T02:59:58;20.90;66.50
13707;DHT22;6925;47.816;13.072;2022-08-16T03:02:25;20.90;66.60
13707;DHT22;6925;47.816;13.072;2022-08-16T03:04:53;20.90;66.40
13707;DHT22;6925;47.816;13.072;2022-08-16T03:07:22;20.90;65.90
13707;DHT22;6925;47.816;13.072;2022-08-16T03:09:49;20.90;65.40
13707;DHT22;6925;47.816;13.072;2022-08-16T03:12:17;20.80;65.60
13707;DHT22;6925;47.816;13.072;2022-08-16T03:14:45;20.90;65.90
13707;DHT22;6925;47.816;13.072;2022-08-16T03:17:13;20.90;65.60
13707;DHT22;6925;47.816;13.072;2022-08-16T03:19:40;20.90;65.80
13707;DHT22;6925;47.816;13.072;2022-08-16T03:22:08;20.80;64.90
13707;DHT22;6925;47.816;13.072;2022-08-16T03:24:36;20.80;65.40
13707;DHT22;6925;47.816;13.072;2022-08-16T03:27:04;20.80;65.80
13707;DHT22;6925;47.816;13.072;2022-08-16T03:29:32;20.80;64.70
13707;DHT22;6925;47.816;13.072;2022-08-16T03:32:00;20.70;65.00
13707;DHT22;6925;47.816;13.072;2022-08-16T03:34:29;20.70;65.50
13707;DHT22;6925;47.816;13.072;2022-08-16T03:36:58;20.70;65.30
13707;DHT22;6925;47.816;13.072;2022-08-16T03:39:26;20.70;65.30
13707;DHT22;6925;47.816;13.072;2022-08-16T03:41:55;20.70;65.70
13707;DHT22;6925;47.816;13.072;2022-08-16T03:44:22;20.80;65.50
13707;DHT22;6925;47.816;13.072;2022-08-16T03:46:50;20.80;65.70
13707;DHT22;6925;47.816;13.072;2022-08-16T03:49:17;20.80;64.60
13707;DHT22;6925;47.816;13.072;2022-08-16T03:51:45;20.80;65.00
13707;DHT22;6925;47.816;13.072;2022-08-16T03:54:12;20.80;64.70
13707;DHT22;6925;47.816;13.072;2022-08-16T03:56:40;20.80;64.90
13707;DHT22;6925;47.816;13.072;2022-08-16T03:59:09;20.80;64.30
13707;DHT22;6925;47.816;13.072;2022-08-16T04:01:36;20.80;64.70
13707;DHT22;6925;47.816;13.072;2022-08-16T04:04:03;20.80;64.60
13707;DHT22;6925;47.816;13.072;2022-08-16T04:06:32;20.70;64.40
13707;DHT22;6925;47.816;13.072;2022-08-16T04:08:59;20.70;64.90
13707;DHT22;6925;47.816;13.072;2022-08-16T04:11:26;20.70;64.90
13707;DHT22;6925;47.816;13.072;2022-08-16T04:13:54;20.70;65.00
13707;DHT22;6925;47.816;13.072;2022-08-16T04:16:22;20.70;64.70
13707;DHT22;6925;47.816;13.072;2022-08-16T04:18:50;20.70;64.80
13707;DHT22;6925;47.816;13.072;2022-08-16T04:21:17;20.70;65.10
13707;DHT22;6925;47.816;13.072;2022-08-16T04:23:44;20.70;65.30
13707;DHT22;6925;47.816;13.072;2022-08-16T04:26:12;20.70;65.20
13707;DHT22;6925;47.816;13.072;2022-08-16T04:28:40;20.70;65.20
13707;DHT22;6925;47.816;13.072;2022-08-16T04:31:07;20.70;65.10
13707;DHT22;6925;47.816;13.072;2022-08-16T04:33:37;20.70;65.30
13707;DHT22;6925;47.816;13.072;2022-08-16T04:36:05;20.70;65.70
13707;DHT22;6925;47.816;13.072;2022-08-16T04:38:32;20.70;64.90
13707;DHT22;6925;47.816;13.072;2022-08-16T04:41:00;20.70;65.40
13707;DHT22;6925;47.816;13.072;2022-08-16T04:43:27;20.70;65.70
13707;DHT22;6925;47.816;13.072;2022-08-16T04:45:58;20.70;65.30
13707;DHT22;6925;47.816;13.072;2022-08-16T04:48:26;20.70;65.20
13707;DHT22;6925;47.816;13.072;2022-08-16T04:50:55;20.70;65.20
13707;DHT22;6925;47.816;13.072;2022-08-16T04:53:22;20.70;65.50
13707;DHT22;6925;47.816;13.072;2022-08-16T04:55:50;20.70;65.40
13707;DHT22;6925;47.816;13.072;2022-08-16T04:58:17;20.70;65.80
13707;DHT22;6925;47.816;13.072;2022-08-16T05:00:45;20.80;65.80
13707;DHT22;6925;47.816;13.072;2022-08-16T05:03:13;20.80;65.80
13707;DHT22;6925;47.816;13.072;2022-08-16T05:05:41;20.90;66.00
13707;DHT22;6925;47.816;13.072;2022-08-16T05:08:10;20.90;66.20
13707;DHT22;6925;47.816;13.072;2022-08-16T05:10:37;20.90;65.90
13707;DHT22;6925;47.816;13.072;2022-08-16T05:13:06;20.90;65.30
13707;DHT22;6925;47.816;13.072;2022-08-16T05:15:33;20.90;65.70
13707;DHT22;6925;47.816;13.072;2022-08-16T05:18:01;20.90;66.60
13707;DHT22;6925;47.816;13.072;2022-08-16T05:20:28;20.90;66.40
13707;DHT22;6925;47.816;13.072;2022-08-16T05:22:56;20.90;65.60
13707;DHT22;6925;47.816;13.072;2022-08-16T05:25:26;20.90;66.00
13707;DHT22;6925;47.816;13.072;2022-08-16T05:27:53;20.90;66.00
13707;DHT22;6925;47.816;13.072;2022-08-16T05:30:23;20.90;65.70
13707;DHT22;6925;47.816;13.072;2022-08-16T05:32:50;20.90;66.10
13707;DHT22;6925;47.816;13.072;2022-08-16T05:35:18;20.90;66.40
13707;DHT22;6925;47.816;13.072;2022-08-16T05:37:45;20.90;66.50
13707;DHT22;6925;47.816;13.072;2022-08-16T05:40:13;20.90;66.30
13707;DHT22;6925;47.816;13.072;2022-08-16T05:42:42;20.90;66.30
13707;DHT22;6925;47.816;13.072;2022-08-16T05:45:10;20.80;66.10
13707;DHT22;6925;47.816;13.072;2022-08-16T05:47:37;20.70;65.30
13707;DHT22;6925;47.816;13.072;2022-08-16T05:50:05;20.70;65.50
13707;DHT22;6925;47.816;13.072;2022-08-16T05:52:33;20.60;65.70
13707;DHT22;6925;47.816;13.072;2022-08-16T05:55:00;20.60;65.70
13707;DHT22;6925;47.816;13.072;2022-08-16T05:57:28;20.60;65.40
13707;DHT22;6925;47.816;13.072;2022-08-16T05:59:57;20.60;65.30
13707;DHT22;6925;47.816;13.072;2022-08-16T06:02:25;20.60;66.00
13707;DHT22;6925;47.816;13.072;2022-08-16T06:04:55;20.60;66.10
13707;DHT22;6925;47.816;13.072;2022-08-16T06:07:22;20.60;66.30
13707;DHT22;6925;47.816;13.072;2022-08-16T06:09:50;20.70;66.80
13707;DHT22;6925;47.816;13.072;2022-08-16T06:12:17;20.70;66.30
13707;DHT22;6925;47.816;13.072;2022-08-16T06:14:44;20.80;66.50
13707;DHT22;6925;47.816;13.072;2022-08-16T06:17:13;20.80;66.50
13707;DHT22;6925;47.816;13.072;2022-08-16T06:19:41;20.90;66.80
13707;DHT22;6925;47.816;13.072;2022-08-16T06:22:09;21.00;67.00
13707;DHT22;6925;47.816;13.072;2022-08-16T06:24:36;21.10;67.60
13707;DHT22;6925;47.816;13.072;2022-08-16T06:27:03;21.10;66.30
13707;DHT22;6925;47.816;13.072;2022-08-16T06:29:30;21.10;66.00
13707;DHT22;6925;47.816;13.072;2022-08-16T06:31:58;21.10;65.50
13707;DHT22;6925;47.816;13.072;2022-08-16T06:34:27;21.10;65.90
13707;DHT22;6925;47.816;13.072;2022-08-16T07:30:46;22.10;63.40
13707;DHT22;6925;47.816;13.072;2022-08-16T07:33:15;22.20;62.90
13707;DHT22;6925;47.816;13.072;2022-08-16T07:35:48;22.10;62.00
13707;DHT22;6925;47.816;13.072;2022-08-16T07:38:17;22.10;62.10
13707;DHT22;6925;47.816;13.072;2022-08-16T07:40:57;22.00;61.60
13707;DHT22;6925;47.816;13.072;2022-08-16T07:43:26;22.00;62.30
13707;DHT22;6925;47.816;13.072;2022-08-16T07:45:54;22.10;62.60
13707;DHT22;6925;47.816;13.072;2022-08-16T07:48:23;22.20;62.30
13707;DHT22;6925;47.816;13.072;2022-08-16T07:50:50;22.20;62.50
13707;DHT22;6925;47.816;13.072;2022-08-16T07:53:18;22.30;62.20
13707;DHT22;6925;47.816;13.072;2022-08-16T07:55:45;22.30;61.80
13707;DHT22;6925;47.816;13.072;2022-08-16T07:58:13;22.30;61.90
13707;DHT22;6925;47.816;13.072;2022-08-16T08:00:42;22.30;61.50
13707;DHT22;6925;47.816;13.072;2022-08-16T08:03:10;22.30;62.10
13707;DHT22;6925;47.816;13.072;2022-08-16T08:05:38;22.40;62.50
13707;DHT22;6925;47.816;13.072;2022-08-16T08:08:06;22.50;61.90
13707;DHT22;6925;47.816;13.072;2022-08-16T08:10:33;22.60;61.90
13707;DHT22;6925;47.816;13.072;2022-08-16T08:13:04;22.60;61.60
13707;DHT22;6925;47.816;13.072;2022-08-16T08:15:33;22.70;61.10
13707;DHT22;6925;47.816;13.072;2022-08-16T08:18:03;22.60;60.70
13707;DHT22;6925;47.816;13.072;2022-08-16T08:20:32;22.70;60.80
13707;DHT22;6925;47.816;13.072;2022-08-16T08:23:00;22.80;60.90
13707;DHT22;6925;47.816;13.072;2022-08-16T08:25:29;22.90;60.40
13707;DHT22;6925;47.816;13.072;2022-08-16T08:27:56;22.90;60.90
13707;DHT22;6925;47.816;13.072;2022-08-16T08:30:25;23.10;59.60
13707;DHT22;6925;47.816;13.072;2022-08-16T08:32:52;23.00;59.10
13707;DHT22;6925;47.816;13.072;2022-08-16T08:35:20;23.00;59.00
13707;DHT22;6925;47.816;13.072;2022-08-16T08:37:49;22.90;59.20
13707;DHT22;6925;47.816;13.072;2022-08-16T08:40:16;23.10;58.20
13707;DHT22;6925;47.816;13.072;2022-08-16T08:42:44;23.10;58.80
13707;DHT22;6925;47.816;13.072;2022-08-16T08:45:14;23.20;58.50
13707;DHT22;6925;47.816;13.072;2022-08-16T08:47:42;23.20;57.50
13707;DHT22;6925;47.816;13.072;2022-08-16T08:50:12;23.30;58.20
13707;DHT22;6925;47.816;13.072;2022-08-16T08:52:42;23.30;58.00
13707;DHT22;6925;47.816;13.072;2022-08-16T08:55:14;23.50;58.30
13707;DHT22;6925;47.816;13.072;2022-08-16T08:57:43;23.60;57.80
13707;DHT22;6925;47.816;13.072;2022-08-16T09:00:15;23.80;57.90
13707;DHT22;6925;47.816;13.072;2022-08-16T09:02:43;24.00;57.50
13707;DHT22;6925;47.816;13.072;2022-08-16T09:05:12;24.20;58.30
13707;DHT22;6925;47.816;13.072;2022-08-16T09:07:40;24.40;57.60
13707;DHT22;6925;47.816;13.072;2022-08-16T09:10:08;24.60;57.50
13707;DHT22;6925;47.816;13.072;2022-08-16T09:12:51;24.80;58.10
13707;DHT22;6925;47.816;13.072;2022-08-16T09:15:18;25.10;58.20
13707;DHT22;6925;47.816;13.072;2022-08-16T09:17:46;25.20;56.20
13707;DHT22;6925;47.816;13.072;2022-08-16T09:20:17;25.20;55.10
13707;DHT22;6925;47.816;13.072;2022-08-16T09:22:45;25.30;56.20
13707;DHT22;6925;47.816;13.072;2022-08-16T09:25:12;25.50;55.90
13707;DHT22;6925;47.816;13.072;2022-08-16T09:27:40;25.70;54.50
13707;DHT22;6925;47.816;13.072;2022-08-16T09:30:09;25.80;54.10
13707;DHT22;6925;47.816;13.072;2022-08-16T09:32:37;26.00;54.30
13707;DHT22;6925;47.816;13.072;2022-08-16T09:35:06;26.10;53.50
13707;DHT22;6925;47.816;13.072;2022-08-16T09:37:35;26.30;53.50
13707;DHT22;6925;47.816;13.072;2022-08-16T09:40:03;26.50;53.60
13707;DHT22;6925;47.816;13.072;2022-08-16T09:42:32;26.70;52.90
13707;DHT22;6925;47.816;13.072;2022-08-16T09:44:59;26.90;53.40
13707;DHT22;6925;47.816;13.072;2022-08-16T09:47:28;27.10;53.50
13707;DHT22;6925;47.816;13.072;2022-08-16T09:49:55;27.30;53.80
13707;DHT22;6925;47.816;13.072;2022-08-16T09:52:22;27.50;52.60
13707;DHT22;6925;47.816;13.072;2022-08-16T09:54:50;27.60;50.80
13707;DHT22;6925;47.816;13.072;2022-08-16T09:57:18;27.60;51.90
13707;DHT22;6925;47.816;13.072;2022-08-16T09:59:46;27.80;52.10
13707;DHT22;6925;47.816;13.072;2022-08-16T10:02:13;28.00;50.60
13707;DHT22;6925;47.816;13.072;2022-08-16T10:04:42;28.00;49.90
13707;DHT22;6925;47.816;13.072;2022-08-16T10:07:09;28.20;50.10
13707;DHT22;6925;47.816;13.072;2022-08-16T10:09:38;28.40;50.60
13707;DHT22;6925;47.816;13.072;2022-08-16T10:12:05;28.60;50.60
13707;DHT22;6925;47.816;13.072;2022-08-16T10:14:50;28.80;49.10
13707;DHT22;6925;47.816;13.072;2022-08-16T10:17:17;28.90;49.70
13707;DHT22;6925;47.816;13.072;2022-08-16T10:19:47;29.20;49.10
13707;DHT22;6925;47.816;13.072;2022-08-16T10:22:16;29.20;48.30
13707;DHT22;6925;47.816;13.072;2022-08-16T10:24:43;29.30;48.10
13707;DHT22;6925;47.816;13.072;2022-08-16T10:27:11;29.40;47.30
13707;DHT22;6925;47.816;13.072;2022-08-16T10:29:38;29.50;48.10
13707;DHT22;6925;47.816;13.072;2022-08-16T10:32:06;29.70;48.10
13707;DHT22;6925;47.816;13.072;2022-08-16T10:34:33;29.90;47.80
13707;DHT22;6925;47.816;13.072;2022-08-16T10:37:02;29.90;47.50
13707;DHT22;6925;47.816;13.072;2022-08-16T10:39:29;30.00;47.50
13707;DHT22;6925;47.816;13.072;2022-08-16T10:41:58;30.20;45.70
13707;DHT22;6925;47.816;13.072;2022-08-16T10:44:25;30.40;43.60
13707;DHT22;6925;47.816;13.072;2022-08-16T10:46:53;30.50;43.40
13707;DHT22;6925;47.816;13.072;2022-08-16T10:49:20;30.50;43.90
13707;DHT22;6925;47.816;13.072;2022-08-16T10:51:50;30.80;44.60
13707;DHT22;6925;47.816;13.072;2022-08-16T10:54:31;31.00;44.40
13707;DHT22;6925;47.816;13.072;2022-08-16T10:56:59;31.20;42.30
13707;DHT22;6925;47.816;13.072;2022-08-16T10:59:27;31.30;42.50
13707;DHT22;6925;47.816;13.072;2022-08-16T11:01:56;31.30;41.80
13707;DHT22;6925;47.816;13.072;2022-08-16T11:04:26;31.40;42.20
13707;DHT22;6925;47.816;13.072;2022-08-16T11:06:53;31.40;41.30
13707;DHT22;6925;47.816;13.072;2022-08-16T11:09:22;31.50;40.60
13707;DHT22;6925;47.816;13.072;2022-08-16T11:11:52;31.70;41.60
13707;DHT22;6925;47.816;13.072;2022-08-16T11:14:22;31.90;41.40
13707;DHT22;6925;47.816;13.072;2022-08-16T11:16:50;32.00;41.80
13707;DHT22;6925;47.816;13.072;2022-08-16T11:19:18;32.20;40.50
13707;DHT22;6925;47.816;13.072;2022-08-16T11:21:45;32.30;40.20
13707;DHT22;6925;47.816;13.072;2022-08-16T11:24:12;32.50;41.20
13707;DHT22;6925;47.816;13.072;2022-08-16T11:26:39;32.80;39.20
13707;DHT22;6925;47.816;13.072;2022-08-16T11:29:08;32.90;37.30
13707;DHT22;6925;47.816;13.072;2022-08-16T11:31:36;33.10;36.90
13707;DHT22;6925;47.816;13.072;2022-08-16T11:34:03;33.20;35.90
13707;DHT22;6925;47.816;13.072;2022-08-16T11:36:30;33.40;36.20
13707;DHT22;6925;47.816;13.072;2022-08-16T11:38:58;33.50;35.90
13707;DHT22;6925;47.816;13.072;2022-08-16T11:41:25;33.50;36.70
13707;DHT22;6925;47.816;13.072;2022-08-16T11:43:53;33.50;35.40
13707;DHT22;6925;47.816;13.072;2022-08-16T11:46:21;33.40;36.60
13707;DHT22;6925;47.816;13.072;2022-08-16T11:48:49;33.30;37.20
13707;DHT22;6925;47.816;13.072;2022-08-16T11:51:16;33.50;37.30
13707;DHT22;6925;47.816;13.072;2022-08-16T11:53:44;33.60;37.70
13707;DHT22;6925;47.816;13.072;2022-08-16T11:56:11;33.70;37.00
13707;DHT22;6925;47.816;13.072;2022-08-16T11:58:54;33.90;36.10
13707;DHT22;6925;47.816;13.072;2022-08-16T12:01:25;34.10;35.40
13707;DHT22;6925;47.816;13.072;2022-08-16T12:03:54;34.30;34.50
13707;DHT22;6925;47.816;13.072;2022-08-16T12:06:22;34.30;36.50
13707;DHT22;6925;47.816;13.072;2022-08-16T12:08:49;34.50;35.20
13707;DHT22;6925;47.816;13.072;2022-08-16T12:11:16;34.50;32.80
13707;DHT22;6925;47.816;13.072;2022-08-16T12:13:44;34.50;32.80
13707;DHT22;6925;47.816;13.072;2022-08-16T12:16:18;34.70;32.60
13707;DHT22;6925;47.816;13.072;2022-08-16T12:18:47;34.90;32.50
13707;DHT22;6925;47.816;13.072;2022-08-16T12:21:14;35.10;33.40
13707;DHT22;6925;47.816;13.072;2022-08-16T12:23:42;35.10;33.30
13707;DHT22;6925;47.816;13.072;2022-08-16T12:26:09;35.10;32.90
13707;DHT22;6925;47.816;13.072;2022-08-16T12:28:37;35.10;32.40
13707;DHT22;6925;47.816;13.072;2022-08-16T12:31:04;35.40;32.30
13707;DHT22;6925;47.816;13.072;2022-08-16T12:33:34;35.40;31.70
13707;DHT22;6925;47.816;13.072;2022-08-16T12:36:03;35.50;31.40
13707;DHT22;6925;47.816;13.072;2022-08-16T12:38:30;35.60;30.50
13707;DHT22;6925;47.816;13.072;2022-08-16T12:40:58;35.80;30.00
13707;DHT22;6925;47.816;13.072;2022-08-16T12:43:26;35.90;29.90
13707;DHT22;6925;47.816;13.072;2022-08-16T12:45:54;36.00;29.70
13707;DHT22;6925;47.816;13.072;2022-08-16T12:48:28;36.10;29.80
13707;DHT22;6925;47.816;13.072;2022-08-16T12:51:17;36.20;28.90
13707;DHT22;6925;47.816;13.072;2022-08-16T12:53:46;36.30;29.30
13707;DHT22;6925;47.816;13.072;2022-08-16T12:56:21;36.40;30.00
13707;DHT22;6925;47.816;13.072;2022-08-16T12:58:50;36.50;29.20
13707;DHT22;6925;47.816;13.072;2022-08-16T13:01:19;36.60;28.90
13707;DHT22;6925;47.816;13.072;2022-08-16T13:03:47;36.60;28.70
13707;DHT22;6925;47.816;13.072;2022-08-16T13:06:16;36.70;29.30
13707;DHT22;6925;47.816;13.072;2022-08-16T13:08:43;36.80;29.50
13707;DHT22;6925;47.816;13.072;2022-08-16T13:11:11;36.90;28.40
13707;DHT22;6925;47.816;13.072;2022-08-16T13:13:38;36.80;27.90
13707;DHT22;6925;47.816;13.072;2022-08-16T13:16:08;36.80;28.40
13707;DHT22;6925;47.816;13.072;2022-08-16T13:18:36;36.80;28.20
13707;DHT22;6925;47.816;13.072;2022-08-16T13:21:04;36.90;28.20
13707;DHT22;6925;47.816;13.072;2022-08-16T13:23:35;37.00;28.50
13707;DHT22;6925;47.816;13.072;2022-08-16T13:26:07;37.00;27.00
13707;DHT22;6925;47.816;13.072;2022-08-16T13:28:34;37.00;27.40
13707;DHT22;6925;47.816;13.072;2022-08-16T13:31:02;37.10;28.00
13707;DHT22;6925;47.816;13.072;2022-08-16T13:33:31;37.40;27.10
13707;DHT22;6925;47.816;13.072;2022-08-16T13:36:04;37.60;26.90
13707;DHT22;6925;47.816;13.072;2022-08-16T13:38:36;37.70;26.40
13707;DHT22;6925;47.816;13.072;2022-08-16T13:41:04;37.70;26.80
13707;DHT22;6925;47.816;13.072;2022-08-16T13:43:32;37.60;26.90
13707;DHT22;6925;47.816;13.072;2022-08-16T13:46:00;37.60;26.70
13707;DHT22;6925;47.816;13.072;2022-08-16T13:48:28;37.70;26.60
13707;DHT22;6925;47.816;13.072;2022-08-16T13:50:56;37.80;26.20
13707;DHT22;6925;47.816;13.072;2022-08-16T13:53:24;37.80;26.70
13707;DHT22;6925;47.816;13.072;2022-08-16T13:55:55;37.90;27.40
13707;DHT22;6925;47.816;13.072;2022-08-16T13:58:23;37.80;26.30
13707;DHT22;6925;47.816;13.072;2022-08-16T14:00:50;37.80;27.00
13707;DHT22;6925;47.816;13.072;2022-08-16T14:03:17;37.90;27.10
13707;DHT22;6925;47.816;13.072;2022-08-16T14:08:19;37.90;26.50
13707;DHT22;6925;47.816;13.072;2022-08-16T14:10:46;37.90;26.20
13707;DHT22;6925;47.816;13.072;2022-08-16T14:13:22;38.00;27.00
13707;DHT22;6925;47.816;13.072;2022-08-16T14:15:50;38.10;26.00
13707;DHT22;6925;47.816;13.072;2022-08-16T14:18:17;38.00;25.30
13707;DHT22;6925;47.816;13.072;2022-08-16T14:20:44;37.90;26.10
13707;DHT22;6925;47.816;13.072;2022-08-16T14:23:12;37.90;26.60
13707;DHT22;6925;47.816;13.072;2022-08-16T14:25:39;37.90;27.20
13707;DHT22;6925;47.816;13.072;2022-08-16T14:28:06;38.00;25.50
13707;DHT22;6925;47.816;13.072;2022-08-16T14:30:35;38.00;25.20
13707;DHT22;6925;47.816;13.072;2022-08-16T14:33:03;37.90;25.00
13707;DHT22;6925;47.816;13.072;2022-08-16T14:35:33;37.90;25.20
13707;DHT22;6925;47.816;13.072;2022-08-16T14:38:03;37.90;25.80
13707;DHT22;6925;47.816;13.072;2022-08-16T14:40:31;37.90;26.10
13707;DHT22;6925;47.816;13.072;2022-08-16T14:42:58;38.00;26.10
13707;DHT22;6925;47.816;13.072;2022-08-16T14:45:27;38.00;25.90
13707;DHT22;6925;47.816;13.072;2022-08-16T14:47:56;38.00;25.60
13707;DHT22;6925;47.816;13.072;2022-08-16T14:50:25;37.90;24.50
13707;DHT22;6925;47.816;13.072;2022-08-16T14:52:56;37.90;25.00
13707;DHT22;6925;47.816;13.072;2022-08-16T14:55:25;37.90;25.10
13707;DHT22;6925;47.816;13.072;2022-08-16T14:57:53;37.90;24.90
13707;DHT22;6925;47.816;13.072;2022-08-16T15:00:20;38.00;25.20
13707;DHT22;6925;47.816;13.072;2022-08-16T15:02:50;37.90;25.70
13707;DHT22;6925;47.816;13.072;2022-08-16T15:05:20;37.80;26.00
13707;DHT22;6925;47.816;13.072;2022-08-16T15:07:48;37.80;26.00
13707;DHT22;6925;47.816;13.072;2022-08-16T15:10:17;37.80;26.20
13707;DHT22;6925;47.816;13.072;2022-08-16T15:12:46;37.80;26.20
13707;DHT22;6925;47.816;13.072;2022-08-16T15:15:16;37.70;27.10
13707;DHT22;6925;47.816;13.072;2022-08-16T15:17:45;37.50;26.10
13707;DHT22;6925;47.816;13.072;2022-08-16T15:20:14;37.40;25.90
13707;DHT22;6925;47.816;13.072;2022-08-16T15:22:47;37.30;26.30
13707;DHT22;6925;47.816;13.072;2022-08-16T15:25:18;37.40;26.60
13707;DHT22;6925;47.816;13.072;2022-08-16T15:27:46;37.30;26.10
13707;DHT22;6925;47.816;13.072;2022-08-16T15:30:18;37.40;27.00
13707;DHT22;6925;47.816;13.072;2022-08-16T15:32:46;37.40;26.50
13707;DHT22;6925;47.816;13.072;2022-08-16T15:35:14;37.40;26.60
13707;DHT22;6925;47.816;13.072;2022-08-16T15:37:43;37.30;26.60
13707;DHT22;6925;47.816;13.072;2022-08-16T15:40:14;37.20;26.50
13707;DHT22;6925;47.816;13.072;2022-08-16T15:42:49;37.20;27.30
13707;DHT22;6925;47.816;13.072;2022-08-16T15:45:17;37.00;27.00
13707;DHT22;6925;47.816;13.072;2022-08-16T15:48:05;37.00;27.40
13707;DHT22;6925;47.816;13.072;2022-08-16T15:50:35;37.10;27.50
13707;DHT22;6925;47.816;13.072;2022-08-16T15:53:09;37.00;27.50
13707;DHT22;6925;47.816;13.072;2022-08-16T15:55:37;36.90;27.20
13707;DHT22;6925;47.816;13.072;2022-08-16T15:58:06;36.80;27.20
13707;DHT22;6925;47.816;13.072;2022-08-16T16:00:34;36.80;27.80
13707;DHT22;6925;47.816;13.072;2022-08-16T16:04:20;36.70;27.10
13707;DHT22;6925;47.816;13.072;2022-08-16T16:06:25;36.50;28.30
13707;DHT22;6925;47.816;13.072;2022-08-16T16:08:54;36.40;27.70
13707;DHT22;6925;47.816;13.072;2022-08-16T16:11:23;36.30;27.80
13707;DHT22;6925;47.816;13.072;2022-08-16T16:13:50;36.20;27.40
13707;DHT22;6925;47.816;13.072;2022-08-16T16:16:18;36.10;27.40
13707;DHT22;6925;47.816;13.072;2022-08-16T16:18:47;36.00;27.70
13707;DHT22;6925;47.816;13.072;2022-08-16T16:21:14;36.00;27.40
13707;DHT22;6925;47.816;13.072;2022-08-16T16:23:44;35.80;28.20
13707;DHT22;6925;47.816;13.072;2022-08-16T16:26:14;35.80;28.10
13707;DHT22;6925;47.816;13.072;2022-08-16T16:28:46;35.60;27.90
13707;DHT22;6925;47.816;13.072;2022-08-16T16:31:16;35.60;28.60
13707;DHT22;6925;47.816;13.072;2022-08-16T16:33:45;35.50;29.40
13707;DHT22;6925;47.816;13.072;2022-08-16T16:36:17;35.40;29.00